Time;durP1;ratioP1;P1;durP2;ratioP2;P2;SDS_P1;SDS_P2;PMS_P1;PMS_P2;Temp;Humidity;BMP_temperature;BMP_pressure;BME280_temperature;BME280_humidity;BME280_pressure;Samples;Min_cycle;Max_cycle;Signal;HPM_P1;HPM_P2
2021/03/26 00:01:25;;;;;;;10.35;5.60;;;;;;;8.01;53.08;96720.94;5046591;28;20045;-67
2021/03/26 00:03:54;;;;;;;11.55;5.28;;;;;;;7.99;53.00;96723.97;5046396;28;20796;-67
2021/03/26 00:06:23;;;;;;;12.13;5.40;;;;;;;7.98;53.29;96714.19;5046968;28;20114;-67
2021/03/26 00:08:49;;;;;;;10.80;5.50;;;;;;;7.95;53.50;96714.78;5049722;28;20080;-67
2021/03/26 00:11:16;;;;;;;10.18;5.20;;;;;;;7.93;53.46;96714.25;5063063;28;20079;-67
2021/03/26 00:13:42;;;;;;;13.57;5.57;;;;;;;7.93;53.71;96711.53;5070328;28;20051;-67
2021/03/26 00:16:10;;;;;;;9.15;4.88;;;;;;;7.87;53.91;96710.00;5070106;28;20055;-67
2021/03/26 00:18:36;;;;;;;12.85;5.72;;;;;;;7.87;53.84;96712.72;5019521;28;20108;-67
2021/03/26 00:21:03;;;;;;;9.98;5.15;;;;;;;7.87;53.63;96715.44;5009213;28;20057;-68
2021/03/26 00:23:29;;;;;;;11.85;5.40;;;;;;;7.83;54.45;96703.59;5029091;28;20223;-68
2021/03/26 00:25:55;;;;;;;10.50;4.55;;;;;;;7.81;54.79;96711.19;5029653;28;20053;-68
2021/03/26 00:28:21;;;;;;;10.32;5.85;;;;;;;7.77;54.24;96707.44;5030275;28;20060;-68
2021/03/26 00:30:47;;;;;;;10.23;5.32;;;;;;;7.76;54.31;96719.38;5029745;28;20045;-68
2021/03/26 00:33:14;;;;;;;10.75;5.32;;;;;;;7.74;54.38;96716.16;5030330;28;20096;-68
2021/03/26 00:35:40;;;;;;;13.75;5.60;;;;;;;7.71;54.40;96716.72;5029802;28;20053;-68
2021/03/26 00:38:06;;;;;;;9.73;5.22;;;;;;;7.68;54.86;96718.13;5030166;28;20053;-68
2021/03/26 00:40:33;;;;;;;14.15;4.90;;;;;;;7.63;55.36;96709.25;5029413;28;20049;-68
2021/03/26 00:43:00;;;;;;;11.10;5.20;;;;;;;7.58;55.19;96719.06;5029856;28;20045;-68
2021/03/26 00:45:29;;;;;;;12.13;5.53;;;;;;;7.55;55.72;96714.22;5029549;28;20136;-68
2021/03/26 00:47:56;;;;;;;12.07;5.70;;;;;;;7.47;55.73;96711.34;5030431;28;20060;-68
2021/03/26 00:50:25;;;;;;;8.23;4.88;;;;;;;7.42;55.91;96709.50;5030108;28;20064;-68
2021/03/26 00:52:51;;;;;;;14.85;5.20;;;;;;;7.40;55.47;96722.50;5029260;28;20512;-67
2021/03/26 00:55:20;;;;;;;11.70;5.60;;;;;;;7.38;55.98;96724.72;5030153;28;20053;-67
2021/03/26 00:57:46;;;;;;;13.45;6.38;;;;;;;7.27;55.73;96723.22;5029197;28;20053;-67
2021/03/26 01:00:17;;;;;;;13.52;6.18;;;;;;;7.19;55.86;96723.84;5029796;28;20515;-67
2021/03/26 01:02:43;;;;;;;13.20;5.43;;;;;;;7.20;55.72;96722.72;5029520;28;20409;-67
2021/03/26 01:05:12;;;;;;;11.70;5.85;;;;;;;7.08;55.85;96728.53;5029252;28;20107;-67
2021/03/26 01:07:38;;;;;;;10.70;5.40;;;;;;;7.10;55.88;96736.38;5029624;28;20053;-67
2021/03/26 01:10:06;;;;;;;12.15;5.82;;;;;;;7.13;56.22;96731.22;5028370;28;20049;-67
2021/03/26 01:12:32;;;;;;;11.35;5.55;;;;;;;7.13;56.20;96719.56;5029820;28;20045;-67
2021/03/26 01:14:58;;;;;;;13.32;5.47;;;;;;;7.11;56.35;96724.47;5028765;28;20106;-67
2021/03/26 01:17:24;;;;;;;10.95;5.25;;;;;;;7.13;56.31;96724.97;5029533;28;20065;-67
2021/03/26 01:19:50;;;;;;;11.10;5.45;;;;;;;7.08;55.69;96731.25;5028591;28;20726;-67
2021/03/26 01:22:16;;;;;;;12.63;5.82;;;;;;;6.92;55.81;96727.88;5029325;28;20527;-67
2021/03/26 01:24:43;;;;;;;10.25;4.97;;;;;;;6.87;55.86;96727.94;5029212;28;20046;-67
2021/03/26 01:27:09;;;;;;;12.73;5.40;;;;;;;6.82;56.15;96725.28;5028597;28;20053;-67
2021/03/26 01:29:35;;;;;;;13.98;5.95;;;;;;;6.75;56.56;96720.19;5028898;28;20493;-67
2021/03/26 01:32:01;;;;;;;11.25;4.78;;;;;;;6.75;56.64;96716.69;5028102;28;20060;-69
2021/03/26 01:34:28;;;;;;;12.90;5.20;;;;;;;6.79;56.43;96717.75;5029237;28;20057;-67
2021/03/26 01:36:54;;;;;;;11.45;5.55;;;;;;;6.70;56.77;96720.25;5028698;28;20050;-67
2021/03/26 01:39:19;;;;;;;11.63;5.13;;;;;;;6.71;56.93;96718.34;5029451;28;20076;-67
2021/03/26 01:41:48;;;;;;;11.82;5.82;;;;;;;6.73;56.65;96721.56;5028146;28;20135;-67
2021/03/26 01:44:15;;;;;;;12.10;5.63;;;;;;;6.76;56.72;96718.28;5029147;28;20060;-67
2021/03/26 01:46:42;;;;;;;11.85;5.22;;;;;;;6.80;56.97;96719.34;5028627;28;20440;-67
2021/03/26 01:49:09;;;;;;;12.98;5.60;;;;;;;6.82;56.80;96710.94;5028853;28;20102;-67
2021/03/26 01:51:39;;;;;;;12.02;4.93;;;;;;;6.83;56.88;96718.75;5027927;28;20061;-67
2021/03/26 01:54:07;;;;;;;12.48;5.45;;;;;;;6.82;57.26;96716.34;5028158;28;20046;-67
2021/03/26 01:56:33;;;;;;;9.63;5.20;;;;;;;6.80;57.11;96713.94;5028664;28;20572;-67
2021/03/26 01:59:00;;;;;;;14.07;6.90;;;;;;;6.76;56.93;96712.88;5028056;28;20045;-67
2021/03/26 02:01:30;;;;;;;11.75;5.55;;;;;;;6.73;57.52;96714.28;5048727;28;20063;-67
2021/03/26 02:04:01;;;;;;;12.32;5.65;;;;;;;6.71;57.59;96711.03;5047859;28;20060;-67
2021/03/26 02:06:30;;;;;;;10.77;5.20;;;;;;;6.70;57.29;96708.63;5048884;28;20048;-67
2021/03/26 02:09:05;;;;;;;11.52;5.88;;;;;;;6.69;57.56;96712.41;5048146;28;20048;-67
2021/03/26 02:11:35;;;;;;;12.18;5.90;;;;;;;6.67;58.03;96709.97;5028918;28;20448;-69
2021/03/26 02:14:08;;;;;;;13.57;5.22;;;;;;;6.63;57.90;96708.94;5028502;28;20057;-67
2021/03/26 02:16:35;;;;;;;11.70;5.18;;;;;;;6.62;58.06;96714.63;5028113;28;20131;-69
2021/03/26 02:19:01;;;;;;;9.85;5.00;;;;;;;6.59;58.25;96712.50;5028657;28;20049;-70
2021/03/26 02:21:30;;;;;;;12.68;5.35;;;;;;;6.56;58.42;96713.84;5027521;28;20061;-69
2021/03/26 02:24:01;;;;;;;14.23;5.07;;;;;;;6.52;58.47;96719.06;5041137;28;20052;-68
2021/03/26 02:26:32;;;;;;;11.50;5.07;;;;;;;6.48;58.00;96723.41;5047290;28;20049;-69
2021/03/26 02:28:59;;;;;;;11.20;5.80;;;;;;;6.40;58.39;96736.72;5048330;28;20446;-68
2021/03/26 02:31:25;;;;;;;11.40;5.32;;;;;;;6.35;58.63;96729.44;5046402;28;20053;-69
2021/03/26 02:33:53;;;;;;;12.10;5.13;;;;;;;6.37;58.93;96723.75;5047746;28;20049;-69
2021/03/26 02:36:46;;;;;;;9.13;4.63;;;;;;;6.39;58.66;96724.28;5047481;28;20040;-69
2021/03/26 02:39:23;;;;;;;10.93;5.38;;;;;;;6.37;58.68;96721.88;5046770;28;20462;-69
2021/03/26 02:41:54;;;;;;;10.93;5.47;;;;;;;6.36;58.63;96722.94;5030078;28;20056;-69
2021/03/26 02:44:31;;;;;;;12.95;5.20;;;;;;;6.40;58.69;96721.28;5026774;28;20053;-69
2021/03/26 02:47:16;;;;;;;11.20;4.88;;;;;;;6.41;58.69;96727.50;5028132;28;20042;-69
2021/03/26 02:49:49;;;;;;;10.85;5.45;;;;;;;6.42;58.98;96721.00;5027975;28;20060;-69
2021/03/26 02:52:24;;;;;;;8.45;4.05;;;;;;;6.42;59.28;96719.13;5035927;28;20052;-69
2021/03/26 02:54:59;;;;;;;9.75;4.93;;;;;;;6.42;59.22;96719.13;5048141;28;20049;-68
2021/03/26 02:57:30;;;;;;;11.30;6.18;;;;;;;6.42;58.96;96723.69;5046639;28;20683;-68
2021/03/26 03:00:00;;;;;;;11.75;5.63;;;;;;;6.43;59.04;96731.56;5048161;28;20106;-68
2021/03/26 03:02:28;;;;;;;11.40;5.43;;;;;;;6.38;58.82;96736.19;5026843;28;20044;-69
2021/03/26 03:05:01;;;;;;;13.70;5.53;;;;;;;6.35;59.14;96734.84;5027598;28;20049;-68
2021/03/26 03:07:30;;;;;;;7.40;3.72;;;;;;;6.35;59.29;96734.03;5027441;28;20747;-68
2021/03/26 03:10:05;;;;;;;9.60;5.40;;;;;;;6.34;59.12;96740.53;5026631;28;20094;-69
2021/03/26 03:12:36;;;;;;;11.98;5.38;;;;;;;6.31;59.19;96732.97;5027656;28;20049;-68
2021/03/26 03:15:10;;;;;;;12.05;5.78;;;;;;;6.27;59.54;96738.16;5026390;28;20053;-70
2021/03/26 03:17:42;;;;;;;11.48;6.03;;;;;;;6.22;59.41;96735.50;5028029;28;20049;-68
2021/03/26 03:20:13;;;;;;;14.43;5.47;;;;;;;6.23;59.34;96737.09;5026707;28;20707;-69
2021/03/26 03:22:43;;;;;;;12.00;5.78;;;;;;;6.20;59.71;96740.34;5027185;28;20045;-68
2021/03/26 03:25:15;;;;;;;10.80;5.05;;;;;;;6.20;59.64;96743.06;5026862;28;20068;-68
2021/03/26 03:27:46;;;;;;;11.65;5.55;;;;;;;6.18;59.82;96737.94;5026561;28;20068;-68
2021/03/26 03:30:19;;;;;;;9.23;5.15;;;;;;;6.17;59.94;96749.84;5027403;28;20053;-68
2021/03/26 03:32:54;;;;;;;13.10;5.40;;;;;;;6.14;59.58;96741.47;5026452;28;20565;-68
2021/03/26 03:35:30;;;;;;;10.23;5.78;;;;;;;6.10;59.51;96743.13;5027295;28;20049;-68
2021/03/26 03:38:05;;;;;;;11.30;5.22;;;;;;;6.08;59.52;96739.91;5026786;28;20049;-68
2021/03/26 03:40:36;;;;;;;10.55;5.40;;;;;;;6.08;60.27;96739.91;5026476;28;20052;-68
2021/03/26 03:43:05;;;;;;;11.18;4.97;;;;;;;6.07;60.27;96741.00;5030670;28;20046;-68
2021/03/26 03:45:42;;;;;;;11.10;5.78;;;;;;;6.04;60.53;96733.44;5030853;28;20045;-68
2021/03/26 03:48:13;;;;;;;10.18;5.63;;;;;;;6.04;59.92;96730.72;5030978;28;20508;-68
2021/03/26 03:50:43;;;;;;;11.43;5.85;;;;;;;6.04;59.95;96736.13;5028363;28;20056;-68
2021/03/26 03:53:15;;;;;;;11.88;5.38;;;;;;;6.05;59.81;96735.03;5031114;28;20057;-68
2021/03/26 03:55:52;;;;;;;12.57;5.80;;;;;;;6.01;60.25;96734.81;5029338;28;20045;-68
2021/03/26 03:58:22;;;;;;;15.30;5.30;;;;;;;6.01;60.27;96732.91;5028964;28;20127;-68
2021/03/26 04:00:57;;;;;;;10.25;5.53;;;;;;;5.99;60.25;96726.16;5030926;28;20064;-68
2021/03/26 04:03:29;;;;;;;11.18;5.40;;;;;;;5.95;60.44;96725.94;5029680;28;20041;-68
2021/03/26 04:06:01;;;;;;;12.88;5.78;;;;;;;5.93;60.23;96727.28;5031358;28;20056;-68
2021/03/26 04:08:30;;;;;;;11.38;5.47;;;;;;;5.91;60.13;96724.84;5029752;28;20049;-68
2021/03/26 04:11:05;;;;;;;12.00;5.60;;;;;;;5.91;60.22;96719.47;5030781;28;20049;-68
2021/03/26 04:13:39;;;;;;;11.82;5.47;;;;;;;5.89;60.39;96721.56;5030236;28;20037;-68
2021/03/26 04:16:05;;;;;;;11.18;5.60;;;;;;;5.88;60.42;96725.38;5030314;28;20109;-70
2021/03/26 04:18:36;;;;;;;11.63;5.57;;;;;;;5.88;60.66;96714.56;5029888;28;20476;-68
2021/03/26 04:21:07;;;;;;;13.73;5.63;;;;;;;5.86;61.01;96715.94;5029364;28;20049;-68
2021/03/26 04:23:36;;;;;;;11.52;5.28;;;;;;;5.85;60.90;96719.75;5030372;28;20056;-68
2021/03/26 04:26:12;;;;;;;13.07;5.72;;;;;;;5.87;60.68;96723.75;5029348;28;20424;-68
2021/03/26 04:28:44;;;;;;;9.98;5.32;;;;;;;5.86;60.75;96718.66;5030666;28;20111;-68
2021/03/26 04:31:15;;;;;;;13.27;5.88;;;;;;;5.81;61.30;96722.19;5029000;28;20041;-68
2021/03/26 04:33:41;;;;;;;12.90;5.78;;;;;;;5.73;61.28;96722.75;5030530;28;20042;-68
2021/03/26 04:36:09;;;;;;;12.75;5.22;;;;;;;5.70;61.31;96717.91;5029491;28;20054;-68
2021/03/26 04:38:40;;;;;;;10.93;5.63;;;;;;;5.68;61.29;96736.28;5028389;28;20049;-68
2021/03/26 04:41:13;;;;;;;10.57;5.35;;;;;;;5.64;61.41;96724.44;5029717;28;20049;-68
2021/03/26 04:43:44;;;;;;;14.10;6.07;;;;;;;5.59;61.47;96711.75;5029117;28;20064;-68
2021/03/26 04:46:19;;;;;;;12.25;5.80;;;;;;;5.55;61.29;96717.97;5030386;28;20049;-68
2021/03/26 04:48:50;;;;;;;11.52;5.35;;;;;;;5.52;61.86;96715.81;5029299;28;20783;-68
2021/03/26 04:51:22;;;;;;;12.43;5.85;;;;;;;5.43;61.95;96719.13;5039816;28;20049;-68
2021/03/26 04:53:53;;;;;;;10.43;5.13;;;;;;;5.38;61.99;96721.84;5028891;28;20050;-68
2021/03/26 04:56:23;;;;;;;8.25;4.85;;;;;;;5.39;62.09;96734.25;5027918;28;20045;-68
2021/03/26 04:58:53;;;;;;;13.32;5.80;;;;;;;5.38;61.73;96727.22;5029738;28;20045;-68
2021/03/26 05:01:20;;;;;;;12.10;5.65;;;;;;;5.34;62.16;96726.16;5028494;28;20060;-68
2021/03/26 05:03:53;;;;;;;12.23;5.28;;;;;;;5.28;61.95;96732.66;5030210;28;20497;-68
2021/03/26 05:06:22;;;;;;;11.02;5.60;;;;;;;5.21;62.17;96732.13;5028700;28;20057;-68
2021/03/26 05:08:54;;;;;;;9.38;5.45;;;;;;;5.21;62.32;96734.81;5029752;28;20527;-68
2021/03/26 05:11:24;;;;;;;11.70;5.10;;;;;;;5.17;62.46;96731.09;5028611;28;20527;-68
2021/03/26 05:13:55;;;;;;;11.48;6.03;;;;;;;5.14;62.46;96732.41;5029469;28;20068;-68
2021/03/26 05:16:31;;;;;;;10.38;5.60;;;;;;;5.10;62.76;96731.34;5029028;28;20080;-68
2021/03/26 05:19:02;;;;;;;14.00;5.85;;;;;;;5.04;63.21;96740.53;5028903;28;20072;-68
2021/03/26 05:21:34;;;;;;;9.45;5.05;;;;;;;4.96;63.01;96735.72;5039841;28;20758;-68
2021/03/26 05:24:06;;;;;;;10.95;5.57;;;;;;;4.94;63.18;96743.25;5028846;28;20390;-68
2021/03/26 05:26:34;;;;;;;14.10;5.60;;;;;;;4.97;63.29;96737.31;5029585;28;20052;-68
2021/03/26 05:29:01;;;;;;;12.05;5.40;;;;;;;5.00;63.38;96733.25;5029613;28;20049;-68
2021/03/26 05:31:59;;;;;;;17.45;5.95;;;;;;;5.05;63.19;96727.84;5028822;28;20049;-68
2021/03/26 05:34:30;;;;;;;12.82;5.50;;;;;;;5.04;63.49;96727.03;5029002;28;20052;-68
2021/03/26 05:37:08;;;;;;;9.20;5.13;;;;;;;5.06;63.74;96729.47;5028372;28;20044;-68
2021/03/26 05:39:36;;;;;;;13.93;5.63;;;;;;;5.11;63.22;96737.53;5029487;28;20041;-68
2021/03/26 05:42:19;;;;;;;11.13;5.10;;;;;;;5.13;63.10;96735.41;5027662;28;20107;-68
2021/03/26 05:44:54;;;;;;;10.77;5.60;;;;;;;5.17;63.20;96741.88;5028932;28;20060;-68
2021/03/26 05:47:30;;;;;;;15.70;5.85;;;;;;;5.21;63.14;96726.72;5028334;28;20056;-68
2021/03/26 05:50:11;;;;;;;11.55;5.30;;;;;;;5.23;63.56;96741.59;5028222;28;20103;-68
2021/03/26 05:52:45;;;;;;;8.90;4.82;;;;;;;5.27;63.63;96735.63;5028891;28;20041;-68
2021/03/26 05:55:27;;;;;;;12.80;5.28;;;;;;;5.29;63.32;96736.97;5027816;28;20068;-67
2021/03/26 05:58:05;;;;;;;12.35;5.18;;;;;;;5.35;63.02;96743.97;5028953;28;20056;-68
2021/03/26 06:01:04;;;;;;;11.45;5.30;;;;;;;5.41;63.08;96737.47;5028475;28;20056;-68
2021/03/26 06:03:59;;;;;;;13.75;5.18;;;;;;;5.46;63.11;96737.44;5027723;28;20095;-68
2021/03/26 06:06:50;;;;;;;18.10;5.97;;;;;;;5.52;62.88;96746.34;5027802;28;20496;-68
2021/03/26 06:09:34;;;;;;;11.63;5.13;;;;;;;5.52;62.71;96746.34;5027739;28;20504;-68
2021/03/26 06:12:16;;;;;;;12.52;6.15;;;;;;;5.55;62.67;96742.28;5027678;28;20049;-68
2021/03/26 06:15:02;;;;;;;10.65;5.22;;;;;;;5.60;62.20;96739.56;5028624;28;20707;-68
2021/03/26 06:17:57;;;;;;;13.45;5.30;;;;;;;5.63;62.04;96747.91;5027739;28;20500;-68
2021/03/26 06:20:48;;;;;;;11.82;5.25;;;;;;;5.68;61.71;96752.50;5022363;28;20059;-68
2021/03/26 06:23:48;;;;;;;9.93;5.25;;;;;;;5.75;61.55;96742.22;5027609;28;20061;-67
2021/03/26 06:27:02;;;;;;;10.93;5.20;;;;;;;5.84;61.33;96737.81;5084757;27;20355;-68
2021/03/26 06:29:46;;;;;;;12.55;4.97;;;;;;;5.89;61.11;96737.00;5055340;28;20041;-68
2021/03/26 06:32:30;;;;;;;;;;;;;;;5.97;60.67;96739.97;5072930;28;20048;-68
2021/03/26 06:35:39;;;;;;;17.98;6.60;;;;;;;6.03;61.09;96731.81;5082649;28;19924;-68
2021/03/26 06:38:34;;;;;;;10.77;4.70;;;;;;;6.13;60.55;96731.75;5083098;28;20440;-68
2021/03/26 06:41:11;;;;;;;15.38;5.32;;;;;;;6.22;60.02;96739.00;5083490;28;20055;-66
2021/03/26 06:44:20;;;;;;;9.43;4.80;;;;;;;6.34;60.05;96733.25;5081472;28;20051;-68
2021/03/26 06:46:53;;;;;;;12.02;5.43;;;;;;;6.48;59.83;96736.94;5068671;28;20121;-68
2021/03/26 06:49:29;;;;;;;16.42;5.32;;;;;;;6.62;60.14;96733.56;5083866;28;20483;-79
2021/03/26 06:52:06;;;;;;;12.48;5.40;;;;;;;6.74;59.60;96732.13;5102967;28;20036;-72
2021/03/26 06:55:14;;;;;;;8.63;5.05;;;;;;;6.84;57.91;96727.69;5105456;28;20036;-72
2021/03/26 06:58:05;;;;;;;12.65;5.47;;;;;;;6.92;57.59;96733.31;5073661;28;20056;-72
2021/03/26 07:00:55;;;;;;;12.00;4.97;;;;;;;6.93;58.70;96729.50;5104602;28;20161;-72
2021/03/26 07:03:38;;;;;;;11.45;5.28;;;;;;;7.04;57.35;96736.44;5104487;27;20063;-72
2021/03/26 07:06:34;;;;;;;11.23;6.40;;;;;;;7.17;57.81;96728.75;5104813;28;20125;-72
2021/03/26 07:09:16;;;;;;;12.32;6.00;;;;;;;7.35;57.95;96733.41;5105009;28;20051;-72
2021/03/26 07:12:04;;;;;;;14.05;6.30;;;;;;;7.49;56.88;96730.81;5099669;28;20048;-72
2021/03/26 07:14:45;;;;;;;12.10;6.03;;;;;;;7.56;56.99;96732.06;5104124;28;20044;-72
2021/03/26 07:17:44;;;;;;;12.00;5.45;;;;;;;8.12;56.18;96722.41;5103070;28;20467;-72
2021/03/26 07:20:46;;;;;;;10.63;5.00;;;;;;;9.34;52.97;96725.06;5102110;28;20135;-71
2021/03/26 07:23:46;;;;;;;10.88;5.15;;;;;;;10.34;50.22;96719.75;5103735;28;20135;-72
2021/03/26 07:26:40;;;;;;;10.55;5.47;;;;;;;11.33;48.14;96717.81;5104173;28;20059;-72
2021/03/26 07:29:29;;;;;;;14.95;5.60;;;;;;;11.94;45.72;96721.59;5076673;28;20052;-72
2021/03/26 07:32:22;;;;;;;11.15;5.88;;;;;;;12.46;44.66;96716.22;5082748;28;20052;-72
2021/03/26 07:35:06;;;;;;;10.18;6.10;;;;;;;12.97;43.97;96709.91;5084050;28;20186;-71
2021/03/26 07:37:38;;;;;;;17.30;7.95;;;;;;;13.46;43.01;96715.13;5070770;28;20036;-72
2021/03/26 07:40:37;;;;;;;10.63;6.05;;;;;;;14.11;42.95;96702.88;5070332;28;20074;-72
2021/03/26 07:43:21;;;;;;;10.80;5.65;;;;;;;14.55;39.93;96703.38;5069954;28;20044;-72
2021/03/26 07:46:21;;;;;;;11.43;5.47;;;;;;;15.15;39.04;96707.53;5069943;28;20044;-73
2021/03/26 07:49:02;;;;;;;8.85;5.45;;;;;;;15.59;38.24;96710.56;5070456;28;20476;-72
2021/03/26 07:51:32;;;;;;;15.15;5.78;;;;;;;15.95;38.47;96714.50;5084475;28;20044;-72
2021/03/26 07:54:26;;;;;;;10.90;5.70;;;;;;;16.35;36.39;96704.41;5090476;28;20044;-72
2021/03/26 07:57:20;;;;;;;11.80;5.68;;;;;;;16.63;36.01;96703.63;5090441;28;20047;-72
2021/03/26 08:00:14;;;;;;;7.85;5.25;;;;;;;16.92;35.95;96708.84;5089298;28;20502;-72
2021/03/26 08:02:53;;;;;;;14.82;5.88;;;;;;;17.37;35.27;96707.66;5090164;28;20692;-72
2021/03/26 08:05:25;;;;;;;13.90;6.63;;;;;;;17.56;34.66;96706.19;5089380;28;20040;-71
2021/03/26 08:08:09;;;;;;;10.67;6.00;;;;;;;17.74;34.68;96707.47;5089843;28;20083;-71
2021/03/26 08:10:40;;;;;;;10.85;5.65;;;;;;;18.06;34.34;96696.41;5090249;28;20438;-71
2021/03/26 08:13:30;;;;;;;10.32;5.90;;;;;;;18.37;33.36;96706.56;5088978;28;20054;-72
2021/03/26 08:16:22;;;;;;;13.70;6.80;;;;;;;18.39;32.80;96704.28;5090284;28;20052;-71
2021/03/26 08:18:58;;;;;;;13.55;7.53;;;;;;;17.80;33.12;96697.78;5091780;28;20040;-71
2021/03/26 08:21:33;;;;;;;11.52;7.00;;;;;;;17.92;33.21;96696.91;5091468;28;20047;-71
2021/03/26 08:24:25;;;;;;;12.85;6.90;;;;;;;18.36;34.50;96700.25;5092828;28;20442;-71
2021/03/26 08:27:03;;;;;;;14.57;7.73;;;;;;;18.76;33.05;96701.94;5092244;28;20095;-71
2021/03/26 08:29:42;;;;;;;14.10;7.70;;;;;;;19.07;31.57;96703.75;5092332;28;20491;-71
2021/03/26 08:32:38;;;;;;;13.13;7.07;;;;;;;19.21;31.54;96704.03;5091857;28;20539;-71
2021/03/26 08:35:21;;;;;;;15.88;7.93;;;;;;;19.32;31.42;96697.91;5091384;28;20047;-71
2021/03/26 08:37:56;;;;;;;11.32;6.65;;;;;;;19.48;32.07;96704.13;5092592;28;20043;-71
2021/03/26 08:40:39;;;;;;;11.10;7.25;;;;;;;19.83;31.27;96703.94;5091317;28;20048;-71
2021/03/26 08:43:09;;;;;;;12.35;6.82;;;;;;;20.23;32.12;96699.84;5091604;28;20479;-71
2021/03/26 08:45:40;;;;;;;17.35;7.80;;;;;;;20.52;29.95;96696.34;5092429;28;20051;-71
2021/03/26 08:48:20;;;;;;;14.63;7.63;;;;;;;20.85;29.66;96697.56;5088876;28;20044;-71
2021/03/26 08:50:59;;;;;;;14.38;7.82;;;;;;;20.95;29.39;96705.22;5092783;28;20040;-72
2021/03/26 08:53:37;;;;;;;13.43;8.25;;;;;;;21.31;29.31;96702.88;5090959;28;20613;-71
2021/03/26 08:56:23;;;;;;;15.73;8.45;;;;;;;21.51;28.88;96706.25;5091690;28;20136;-70
2021/03/26 08:59:33;;;;;;;14.75;8.35;;;;;;;21.57;27.71;96701.97;5091964;28;20074;-72
2021/03/26 09:02:21;;;;;;;14.43;8.32;;;;;;;21.01;28.80;96706.47;5085622;28;20032;-71
2021/03/26 09:05:24;;;;;;;17.30;8.55;;;;;;;20.68;29.00;96693.41;5091896;28;20036;-71
2021/03/26 09:08:01;;;;;;;13.82;7.78;;;;;;;20.72;29.87;96701.72;5091893;28;20090;-71
2021/03/26 09:11:08;;;;;;;16.60;9.48;;;;;;;21.03;30.22;96704.09;5090893;28;20054;-71
2021/03/26 09:13:45;;;;;;;17.48;9.55;;;;;;;21.47;28.74;96703.44;5060931;28;20040;-71
2021/03/26 09:16:16;;;;;;;17.23;8.85;;;;;;;21.70;29.32;96702.47;5090760;28;20047;-71
2021/03/26 09:18:52;;;;;;;16.55;9.95;;;;;;;21.95;29.12;96697.94;5091437;28;20040;-71
2021/03/26 09:21:49;;;;;;;17.63;9.80;;;;;;;22.09;28.02;96698.06;5089557;28;20514;-71
2021/03/26 09:24:26;;;;;;;16.33;9.93;;;;;;;22.18;29.64;96694.94;5055236;28;20036;-71
2021/03/26 09:27:10;;;;;;;19.88;10.48;;;;;;;22.31;29.04;96685.16;5091747;28;20043;-71
2021/03/26 09:29:45;;;;;;;20.63;9.82;;;;;;;22.24;27.56;96687.88;5091454;28;20048;-71
2021/03/26 09:32:17;;;;;;;16.98;9.50;;;;;;;22.44;28.59;96680.06;5090760;28;20052;-71
2021/03/26 09:34:50;;;;;;;17.17;9.75;;;;;;;22.57;27.25;96681.34;5091564;28;20040;-71
2021/03/26 09:37:19;;;;;;;;;;;;;;;22.92;27.65;96677.19;5090518;28;20526;-71
2021/03/26 09:39:50;;;;;;;15.80;9.98;;;;;;;22.59;26.53;96680.94;5091849;28;19927;-72
2021/03/26 09:42:35;;;;;;;16.00;9.80;;;;;;;22.74;28.54;96670.72;5091010;28;20040;-72
2021/03/26 09:45:07;;;;;;;15.27;9.05;;;;;;;22.58;26.70;96671.03;5090901;28;20044;-72
2021/03/26 09:47:39;;;;;;;17.02;9.10;;;;;;;22.53;27.93;96666.66;5091220;28;20048;-72
2021/03/26 09:50:26;;;;;;;19.25;9.73;;;;;;;22.20;27.35;96669.63;5090144;28;20134;-72
2021/03/26 09:52:53;;;;;;;16.02;9.18;;;;;;;21.89;28.08;96666.19;5091239;28;20048;-71
2021/03/26 09:55:25;;;;;;;19.15;9.55;;;;;;;21.72;28.79;96661.31;5090079;28;20118;-72
2021/03/26 09:57:58;;;;;;;19.25;10.65;;;;;;;21.67;28.74;96658.91;5091137;28;20746;-72
2021/03/26 10:00:48;;;;;;;18.95;9.95;;;;;;;21.68;30.24;96661.28;5089897;28;20518;-72
2021/03/26 10:03:35;;;;;;;16.02;9.52;;;;;;;21.92;29.43;96657.09;5090072;28;20047;-72
2021/03/26 10:06:10;;;;;;;20.23;10.98;;;;;;;21.95;29.39;96652.78;5090555;28;20044;-72
2021/03/26 10:08:49;;;;;;;19.92;11.80;;;;;;;21.81;29.00;96648.69;5090146;28;20244;-72
2021/03/26 10:11:19;;;;;;;19.10;11.25;;;;;;;21.80;30.19;96644.34;5090693;28;20518;-72
2021/03/26 10:13:51;;;;;;;20.33;10.63;;;;;;;21.87;28.61;96641.66;5090588;28;20048;-71
2021/03/26 10:16:24;;;;;;;17.92;10.68;;;;;;;21.67;29.43;96642.28;5090463;28;20040;-71
2021/03/26 10:18:53;;;;;;;22.48;11.30;;;;;;;21.61;30.17;96645.38;5088128;28;20051;-72
2021/03/26 10:21:23;;;;;;;20.50;11.80;;;;;;;21.60;29.55;96637.44;5075884;28;20066;-72
2021/03/26 10:24:03;;;;;;;20.38;11.18;;;;;;;21.46;30.38;96638.13;5088071;28;20100;-73
2021/03/26 10:26:35;;;;;;;19.42;10.48;;;;;;;21.39;30.52;96637.25;5066706;28;20119;-72
2021/03/26 10:29:41;;;;;;;20.40;11.02;;;;;;;21.39;29.99;96635.28;5086631;28;20056;-72
2021/03/26 10:32:14;;;;;;;17.20;9.93;;;;;;;21.27;30.22;96638.31;5023799;28;20053;-72
2021/03/26 10:34:43;;;;;;;15.10;9.88;;;;;;;21.01;30.39;96634.47;5024306;28;20041;-72
2021/03/26 10:37:37;;;;;;;23.15;10.30;;;;;;;20.93;30.96;96630.03;5056012;28;20044;-72
2021/03/26 10:40:08;;;;;;;15.90;9.68;;;;;;;20.67;30.84;96627.34;5086463;28;20048;-72
2021/03/26 10:42:42;;;;;;;17.42;9.70;;;;;;;20.37;31.26;96625.38;5088060;28;20092;-72
2021/03/26 10:45:22;;;;;;;20.73;10.48;;;;;;;20.16;32.35;96619.56;5085357;28;20647;-72
2021/03/26 10:47:54;;;;;;;17.23;10.05;;;;;;;20.13;31.96;96623.88;5087235;28;20044;-72
2021/03/26 10:50:33;;;;;;;17.92;10.45;;;;;;;19.97;32.37;96612.19;5086820;28;20067;-72
2021/03/26 10:53:07;;;;;;;17.23;9.80;;;;;;;19.95;32.74;96620.84;5086720;28;20040;-72
2021/03/26 10:55:43;;;;;;;14.27;8.88;;;;;;;20.00;33.01;96609.47;5088170;28;20036;-72
2021/03/26 10:58:20;;;;;;;17.95;10.63;;;;;;;19.94;32.50;96610.16;5086559;28;20037;-72
2021/03/26 11:00:58;;;;;;;14.93;9.55;;;;;;;19.92;32.57;96613.28;5087557;28;20146;-72
2021/03/26 11:03:29;;;;;;;20.23;9.70;;;;;;;19.77;31.88;96600.44;5086832;28;20048;-72
2021/03/26 11:05:58;;;;;;;18.98;9.55;;;;;;;19.72;32.56;96598.00;5086935;28;20056;-73
2021/03/26 11:08:42;;;;;;;15.45;9.35;;;;;;;19.86;33.71;96597.41;5086771;28;20051;-73
2021/03/26 11:11:21;;;;;;;;;;;;;;;19.90;33.48;96599.06;5087037;28;20044;-72
2021/03/26 11:14:32;;;;;;;16.85;9.38;;;;;;;19.84;32.03;96589.50;5091212;28;20423;-72
2021/03/26 11:17:19;;;;;;;17.58;8.98;;;;;;;19.55;31.88;96586.25;5091050;28;20047;-72
2021/03/26 11:20:08;;;;;;;19.88;9.65;;;;;;;19.34;32.03;96587.88;5090287;28;20044;-72
2021/03/26 11:22:36;;;;;;;20.73;9.68;;;;;;;19.30;34.67;96588.59;5082677;28;20055;-72
2021/03/26 11:25:08;;;;;;;17.25;9.57;;;;;;;19.42;33.70;96590.41;5089859;28;20055;-72
2021/03/26 11:27:39;;;;;;;16.83;10.18;;;;;;;19.56;33.40;96574.03;5089617;28;20044;-72
2021/03/26 11:30:21;;;;;;;16.75;9.35;;;;;;;19.57;33.01;96566.53;5093166;28;20051;-72
2021/03/26 11:32:54;;;;;;;19.37;10.30;;;;;;;19.61;32.76;96559.16;5093004;28;20044;-72
2021/03/26 11:35:22;;;;;;;18.27;9.63;;;;;;;19.63;32.39;96562.34;5093373;28;20072;-72
2021/03/26 11:37:51;;;;;;;16.45;8.75;;;;;;;19.68;34.20;96563.97;5092803;28;20043;-72
2021/03/26 11:40:27;;;;;;;15.18;8.93;;;;;;;19.86;33.71;96556.75;5093376;28;20047;-72
2021/03/26 11:42:55;;;;;;;17.73;10.00;;;;;;;19.86;32.67;96554.00;5093113;28;20047;-72
2021/03/26 11:45:43;;;;;;;17.85;9.13;;;;;;;20.02;32.30;96551.06;5092373;28;20453;-72
2021/03/26 11:48:24;;;;;;;19.08;9.82;;;;;;;20.15;32.01;96540.53;5092927;28;20040;-72
2021/03/26 11:51:01;;;;;;;17.90;9.32;;;;;;;20.28;34.80;96537.16;5092348;28;20123;-72
2021/03/26 11:53:33;;;;;;;16.13;8.65;;;;;;;20.38;32.88;96535.72;5093166;28;20047;-73
2021/03/26 11:56:37;;;;;;;21.17;9.70;;;;;;;20.59;32.13;96529.66;5092146;28;20048;-73
2021/03/26 11:59:17;;;;;;;16.27;9.27;;;;;;;20.80;31.08;96524.34;5091985;28;20029;-72
2021/03/26 12:01:54;;;;;;;15.65;8.70;;;;;;;20.88;30.65;96519.69;5093430;28;20043;-72
2021/03/26 12:04:24;;;;;;;15.90;8.02;;;;;;;21.00;28.95;96522.16;5091608;28;20056;-72
2021/03/26 12:06:58;;;;;;;13.23;7.63;;;;;;;20.91;29.93;96518.09;5093276;28;20047;-74
2021/03/26 12:09:33;;;;;;;15.27;7.75;;;;;;;21.09;29.64;96517.09;5091957;28;20040;-71
2021/03/26 12:12:06;;;;;;;14.68;7.85;;;;;;;21.27;28.30;96508.94;5092850;28;20047;-71
2021/03/26 12:14:39;;;;;;;;;;;;;;;21.51;29.62;96504.00;5093287;28;20040;-71